Accueil
METAR-TAF:

METAR-TAF

Aéroports :

Aérodrome de Pantelleria

Pantelleria, Italie

latitude: 36-49N, longitude: 011-58E, altitude: 191 m

Observation

Le bulletin a été fait il y a 46 minutes, à 06:50 UTC
Vent calme
Température 9°C
Humidité 71%
Pression 1027 hPa
Visibilité 10 km ou plus
pas de nuages en-dessous de 1500 mètres et pas de cumulonimbus.

METAR: LICG 240650Z 00000KT CAVOK 09/04 Q1027

Heure: 08:36 (07:36 UTC)

Prévision

Le bulletin a été fait il y a 1 heure et 48 minutes, à 05:48 UTC
Prévision valable du 24 à 06 UTC au 24 à 15 UTC
Vent 12 kt de nord/nord-est
Visibilité 10 km ou plus
pas de nuages en-dessous de 1500 mètres et pas de cumulonimbus.

TAF: LICG 240548Z 2406/2415 02012KT CAVOK

Observations et prévisions météorologiques de plus de 4000 aéroports (messages METAR et TAF).

Les stations disponibles sont représentées par des disques jaunes et rouges sur la carte.

Passer la souris dessus pour voir le nom de la station.

Cliquer dessus pour voir les observations et prévisions météorologiques.

Pour changer de carte: cliquez sur les boutons verts avec une croix noire pour zoomer, sur le bouton vert avec un tiret pour effectuer un zoom arrière, ou sur les flèches vertes pour les cartes adjacentes.


METAR-TAF: